sensor_id;sensor_type;location;lat;lon;timestamp;pressure;altitude;pressure_sealevel;temperature;humidity
46223;BME280;31943;51.410;7.564;2023-07-31T00:01:23;99812.47;;;17.40;73.63
46223;BME280;31943;51.410;7.564;2023-07-31T00:03:49;99805.44;;;17.41;73.74
46223;BME280;31943;51.410;7.564;2023-07-31T00:06:15;99801.06;;;17.38;73.86
46223;BME280;31943;51.410;7.564;2023-07-31T00:08:41;99802.91;;;17.36;73.94
46223;BME280;31943;51.410;7.564;2023-07-31T00:11:07;99802.91;;;17.34;73.91
46223;BME280;31943;51.410;7.564;2023-07-31T00:13:33;99800.28;;;17.34;74.28
46223;BME280;31943;51.410;7.564;2023-07-31T00:16:00;99789.84;;;17.31;74.12
46223;BME280;31943;51.410;7.564;2023-07-31T00:18:27;99789.81;;;17.33;74.24
46223;BME280;31943;51.410;7.564;2023-07-31T00:20:53;99789.75;;;17.34;74.37
46223;BME280;31943;51.410;7.564;2023-07-31T00:23:18;99794.13;;;17.35;74.49
46223;BME280;31943;51.410;7.564;2023-07-31T00:25:44;99777.44;;;17.35;74.34
46223;BME280;31943;51.410;7.564;2023-07-31T00:28:10;99786.28;;;17.32;74.52
46223;BME280;31943;51.410;7.564;2023-07-31T00:30:38;99790.75;;;17.29;74.62
46223;BME280;31943;51.410;7.564;2023-07-31T00:33:04;99781.97;;;17.28;74.83
46223;BME280;31943;51.410;7.564;2023-07-31T00:35:33;99789.09;;;17.25;74.97
46223;BME280;31943;51.410;7.564;2023-07-31T00:37:59;99783.75;;;17.28;75.00
46223;BME280;31943;51.410;7.564;2023-07-31T00:40:24;99784.63;;;17.28;74.92
46223;BME280;31943;51.410;7.564;2023-07-31T00:42:50;99781.09;;;17.29;74.71
46223;BME280;31943;51.410;7.564;2023-07-31T00:45:16;99782.97;;;17.24;74.93
46223;BME280;31943;51.410;7.564;2023-07-31T00:47:43;99787.38;;;17.24;75.28
46223;BME280;31943;51.410;7.564;2023-07-31T00:50:10;99787.34;;;17.25;75.17
46223;BME280;31943;51.410;7.564;2023-07-31T00:52:38;99779.34;;;17.28;75.20
46223;BME280;31943;51.410;7.564;2023-07-31T00:55:05;99767.03;;;17.29;75.32
46223;BME280;31943;51.410;7.564;2023-07-31T00:57:32;99791.72;;;17.25;75.43
46223;BME280;31943;51.410;7.564;2023-07-31T00:59:58;99789.09;;;17.25;75.14
46223;BME280;31943;51.410;7.564;2023-07-31T01:02:24;99775.06;;;17.24;75.31
46223;BME280;31943;51.410;7.564;2023-07-31T01:04:51;99764.50;;;17.24;75.43
46223;BME280;31943;51.410;7.564;2023-07-31T01:07:21;99772.41;;;17.24;74.92
46223;BME280;31943;51.410;7.564;2023-07-31T01:09:55;99769.81;;;17.23;74.94
46223;BME280;31943;51.410;7.564;2023-07-31T01:12:23;99758.41;;;17.22;74.88
46223;BME280;31943;51.410;7.564;2023-07-31T01:15:02;99767.19;;;17.23;74.81
46223;BME280;31943;51.410;7.564;2023-07-31T01:17:28;99778.66;;;17.22;74.76
46223;BME280;31943;51.410;7.564;2023-07-31T01:19:54;99764.53;;;17.23;75.02
46223;BME280;31943;51.410;7.564;2023-07-31T01:22:33;99771.53;;;17.25;74.84
46223;BME280;31943;51.410;7.564;2023-07-31T01:25:16;99783.75;;;17.28;74.56
46223;BME280;31943;51.410;7.564;2023-07-31T01:27:55;99772.34;;;17.27;74.53
46223;BME280;31943;51.410;7.564;2023-07-31T01:30:28;99771.41;;;17.30;74.50
46223;BME280;31943;51.410;7.564;2023-07-31T01:32:57;99773.25;;;17.26;74.58
46223;BME280;31943;51.410;7.564;2023-07-31T01:35:25;99767.13;;;17.26;74.59
46223;BME280;31943;51.410;7.564;2023-07-31T01:37:53;99775.91;;;17.25;74.28
46223;BME280;31943;51.410;7.564;2023-07-31T01:40:19;99769.81;;;17.23;74.21
46223;BME280;31943;51.410;7.564;2023-07-31T01:42:46;99781.28;;;17.22;74.48
46223;BME280;31943;51.410;7.564;2023-07-31T01:45:13;99772.44;;;17.23;74.13
46223;BME280;31943;51.410;7.564;2023-07-31T01:47:39;99781.25;;;17.23;73.86
46223;BME280;31943;51.410;7.564;2023-07-31T01:50:05;99770.59;;;17.26;74.09
46223;BME280;31943;51.410;7.564;2023-07-31T01:52:32;99775.00;;;17.27;74.10
46223;BME280;31943;51.410;7.564;2023-07-31T01:54:58;99770.69;;;17.23;73.80
46223;BME280;31943;51.410;7.564;2023-07-31T01:57:25;99768.09;;;17.22;73.85
46223;BME280;31943;51.410;7.564;2023-07-31T01:59:51;99768.91;;;17.25;73.95
46223;BME280;31943;51.410;7.564;2023-07-31T02:02:19;99764.50;;;17.24;73.67
46223;BME280;31943;51.410;7.564;2023-07-31T02:04:45;99765.34;;;17.26;73.57
46223;BME280;31943;51.410;7.564;2023-07-31T02:07:13;99764.44;;;17.27;73.71
46223;BME280;31943;51.410;7.564;2023-07-31T02:09:39;99760.91;;;17.27;73.56
46223;BME280;31943;51.410;7.564;2023-07-31T02:12:06;99756.59;;;17.24;73.49
46223;BME280;31943;51.410;7.564;2023-07-31T02:14:32;99760.09;;;17.25;73.56
46223;BME280;31943;51.410;7.564;2023-07-31T02:16:57;99759.09;;;17.29;73.28
46223;BME280;31943;51.410;7.564;2023-07-31T02:19:24;99751.34;;;17.23;73.19
46223;BME280;31943;51.410;7.564;2023-07-31T02:21:50;99760.19;;;17.22;73.35
46223;BME280;31943;51.410;7.564;2023-07-31T02:24:16;99753.41;;;17.11;73.09
46223;BME280;31943;51.410;7.564;2023-07-31T02:26:42;99756.00;;;17.13;73.09
46223;BME280;31943;51.410;7.564;2023-07-31T02:29:08;99752.44;;;17.15;73.06
46223;BME280;31943;51.410;7.564;2023-07-31T02:31:34;99755.09;;;17.14;72.69
46223;BME280;31943;51.410;7.564;2023-07-31T02:34:00;99754.28;;;17.12;72.76
46223;BME280;31943;51.410;7.564;2023-07-31T02:36:28;99748.88;;;17.16;72.73
46223;BME280;31943;51.410;7.564;2023-07-31T02:38:54;99742.78;;;17.14;72.27
46223;BME280;31943;51.410;7.564;2023-07-31T02:41:20;99736.63;;;17.15;72.23
46223;BME280;31943;51.410;7.564;2023-07-31T02:43:46;99740.03;;;17.19;72.29
46223;BME280;31943;51.410;7.564;2023-07-31T02:46:12;99742.72;;;17.17;72.24
46223;BME280;31943;51.410;7.564;2023-07-31T02:48:37;99748.84;;;17.18;72.00
46223;BME280;31943;51.410;7.564;2023-07-31T02:51:03;99738.34;;;17.16;72.08
46223;BME280;31943;51.410;7.564;2023-07-31T02:53:30;99737.47;;;17.16;72.03
46223;BME280;31943;51.410;7.564;2023-07-31T02:55:56;99738.34;;;17.16;72.13
46223;BME280;31943;51.410;7.564;2023-07-31T02:58:22;99738.28;;;17.19;71.68
46223;BME280;31943;51.410;7.564;2023-07-31T03:00:48;99739.94;;;17.22;71.71
46223;BME280;31943;51.410;7.564;2023-07-31T03:03:15;99731.16;;;17.23;71.62
46223;BME280;31943;51.410;7.564;2023-07-31T03:05:41;99719.69;;;17.24;71.53
46223;BME280;31943;51.410;7.564;2023-07-31T03:08:08;99733.78;;;17.23;71.34
46223;BME280;31943;51.410;7.564;2023-07-31T03:10:35;99729.41;;;17.22;70.97
46223;BME280;31943;51.410;7.564;2023-07-31T03:13:02;99732.97;;;17.21;71.17
46223;BME280;31943;51.410;7.564;2023-07-31T03:15:29;99735.59;;;17.21;71.01
46223;BME280;31943;51.410;7.564;2023-07-31T03:17:54;99725.88;;;17.23;71.11
46223;BME280;31943;51.410;7.564;2023-07-31T03:20:20;99731.97;;;17.25;70.87
46223;BME280;31943;51.410;7.564;2023-07-31T03:22:45;99732.81;;;17.27;70.74
46223;BME280;31943;51.410;7.564;2023-07-31T03:25:11;99726.78;;;17.22;70.85
46223;BME280;31943;51.410;7.564;2023-07-31T03:27:39;99731.09;;;17.25;70.84
46223;BME280;31943;51.410;7.564;2023-07-31T03:30:06;99717.03;;;17.24;70.51
46223;BME280;31943;51.410;7.564;2023-07-31T03:32:32;99724.09;;;17.24;70.35
46223;BME280;31943;51.410;7.564;2023-07-31T03:34:57;99716.09;;;17.27;70.22
46223;BME280;31943;51.410;7.564;2023-07-31T03:37:23;99723.13;;;17.28;70.17
46223;BME280;31943;51.410;7.564;2023-07-31T03:39:49;99714.25;;;17.30;70.35
46223;BME280;31943;51.410;7.564;2023-07-31T03:42:15;99710.78;;;17.28;70.41
46223;BME280;31943;51.410;7.564;2023-07-31T03:44:42;99716.03;;;17.30;70.36
46223;BME280;31943;51.410;7.564;2023-07-31T03:47:08;99708.16;;;17.28;70.36
46223;BME280;31943;51.410;7.564;2023-07-31T03:49:35;99705.47;;;17.30;69.91
46223;BME280;31943;51.410;7.564;2023-07-31T03:52:00;99712.50;;;17.31;70.36
46223;BME280;31943;51.410;7.564;2023-07-31T03:54:26;99716.00;;;17.31;70.30
46223;BME280;31943;51.410;7.564;2023-07-31T03:56:53;99713.34;;;17.31;69.90
46223;BME280;31943;51.410;7.564;2023-07-31T03:59:19;99708.13;;;17.30;70.03
46223;BME280;31943;51.410;7.564;2023-07-31T04:01:46;99715.91;;;17.34;70.33
46223;BME280;31943;51.410;7.564;2023-07-31T04:04:12;99712.38;;;17.35;70.11
46223;BME280;31943;51.410;7.564;2023-07-31T04:06:37;99709.75;;;17.34;70.23
46223;BME280;31943;51.410;7.564;2023-07-31T04:09:03;99715.00;;;17.35;70.05
46223;BME280;31943;51.410;7.564;2023-07-31T04:11:29;99717.63;;;17.35;69.87
46223;BME280;31943;51.410;7.564;2023-07-31T04:13:54;99710.69;;;17.33;70.01
46223;BME280;31943;51.410;7.564;2023-07-31T04:16:21;99713.22;;;17.36;70.01
46223;BME280;31943;51.410;7.564;2023-07-31T04:18:50;99705.25;;;17.39;70.01
46223;BME280;31943;51.410;7.564;2023-07-31T04:21:16;99708.59;;;17.44;69.89
46223;BME280;31943;51.410;7.564;2023-07-31T04:23:43;99698.88;;;17.46;69.77
46223;BME280;31943;51.410;7.564;2023-07-31T04:26:08;99700.59;;;17.49;70.04
46223;BME280;31943;51.410;7.564;2023-07-31T04:28:34;99699.59;;;17.53;70.01
46223;BME280;31943;51.410;7.564;2023-07-31T04:31:00;99700.41;;;17.55;69.60
46223;BME280;31943;51.410;7.564;2023-07-31T04:33:26;99700.28;;;17.59;70.04
46223;BME280;31943;51.410;7.564;2023-07-31T04:35:53;99698.47;;;17.62;69.68
46223;BME280;31943;51.410;7.564;2023-07-31T04:38:21;99703.78;;;17.60;69.81
46223;BME280;31943;51.410;7.564;2023-07-31T04:40:48;99702.06;;;17.59;69.89
46223;BME280;31943;51.410;7.564;2023-07-31T04:43:14;99690.53;;;17.62;69.67
46223;BME280;31943;51.410;7.564;2023-07-31T04:45:42;99693.97;;;17.65;69.61
46223;BME280;31943;51.410;7.564;2023-07-31T04:48:08;99700.22;;;17.63;70.01
46223;BME280;31943;51.410;7.564;2023-07-31T04:50:34;99690.38;;;17.68;69.81
46223;BME280;31943;51.410;7.564;2023-07-31T04:53:03;99695.63;;;17.69;69.69
46223;BME280;31943;51.410;7.564;2023-07-31T04:55:29;99697.28;;;17.72;69.87
46223;BME280;31943;51.410;7.564;2023-07-31T04:57:57;99686.72;;;17.72;69.91
46223;BME280;31943;51.410;7.564;2023-07-31T05:00:23;99677.94;;;17.73;69.45
46223;BME280;31943;51.410;7.564;2023-07-31T05:02:48;99698.16;;;17.74;69.46
46223;BME280;31943;51.410;7.564;2023-07-31T05:05:15;99684.97;;;17.72;69.39
46223;BME280;31943;51.410;7.564;2023-07-31T05:07:41;99680.59;;;17.71;69.94
46223;BME280;31943;51.410;7.564;2023-07-31T05:10:11;99677.03;;;17.74;70.32
46223;BME280;31943;51.410;7.564;2023-07-31T05:12:36;99678.78;;;17.73;69.88
46223;BME280;31943;51.410;7.564;2023-07-31T05:15:02;99671.75;;;17.74;70.38
46223;BME280;31943;51.410;7.564;2023-07-31T05:17:28;99674.25;;;17.78;70.25
46223;BME280;31943;51.410;7.564;2023-07-31T05:19:54;99665.41;;;17.79;70.28
46223;BME280;31943;51.410;7.564;2023-07-31T05:22:19;99668.00;;;17.81;70.15
46223;BME280;31943;51.410;7.564;2023-07-31T05:24:46;99675.97;;;17.79;70.20
46223;BME280;31943;51.410;7.564;2023-07-31T05:27:13;99664.50;;;17.81;70.61
46223;BME280;31943;51.410;7.564;2023-07-31T05:29:42;99652.13;;;17.84;70.55
46223;BME280;31943;51.410;7.564;2023-07-31T05:32:08;99644.88;;;17.91;70.35
46223;BME280;31943;51.410;7.564;2023-07-31T05:34:34;99654.44;;;17.95;70.17
46223;BME280;31943;51.410;7.564;2023-07-31T05:36:59;99650.78;;;17.99;70.15
46223;BME280;31943;51.410;7.564;2023-07-31T05:39:25;99649.66;;;18.08;70.02
46223;BME280;31943;51.410;7.564;2023-07-31T05:41:51;99647.81;;;18.11;69.76
46223;BME280;31943;51.410;7.564;2023-07-31T05:44:18;99645.91;;;18.15;69.58
46223;BME280;31943;51.410;7.564;2023-07-31T05:46:44;99647.47;;;18.22;69.49
46223;BME280;31943;51.410;7.564;2023-07-31T05:49:09;99647.47;;;18.22;69.69
46223;BME280;31943;51.410;7.564;2023-07-31T05:51:35;99641.38;;;18.20;69.43
46223;BME280;31943;51.410;7.564;2023-07-31T05:54:01;99635.19;;;18.21;69.60
46223;BME280;31943;51.410;7.564;2023-07-31T05:56:26;99631.78;;;18.17;69.93
46223;BME280;31943;51.410;7.564;2023-07-31T05:58:52;99634.44;;;18.16;69.73
46223;BME280;31943;51.410;7.564;2023-07-31T06:01:20;99623.16;;;18.11;69.71
46223;BME280;31943;51.410;7.564;2023-07-31T06:03:47;99624.94;;;18.10;69.84
46223;BME280;31943;51.410;7.564;2023-07-31T06:06:13;99619.50;;;18.15;69.67
46223;BME280;31943;51.410;7.564;2023-07-31T06:08:39;99610.53;;;18.21;69.33
46223;BME280;31943;51.410;7.564;2023-07-31T06:11:05;99614.91;;;18.22;69.75
46223;BME280;31943;51.410;7.564;2023-07-31T06:13:33;99618.41;;;18.22;69.74
46223;BME280;31943;51.410;7.564;2023-07-31T06:15:58;99620.22;;;18.20;69.31
46223;BME280;31943;51.410;7.564;2023-07-31T06:18:25;99612.44;;;18.17;69.45
46223;BME280;31943;51.410;7.564;2023-07-31T06:20:51;99615.09;;;18.15;69.24
46223;BME280;31943;51.410;7.564;2023-07-31T06:23:17;99613.31;;;18.16;69.57
46223;BME280;31943;51.410;7.564;2023-07-31T06:25:42;99608.84;;;18.18;69.24
46223;BME280;31943;51.410;7.564;2023-07-31T06:28:08;99602.69;;;18.19;69.10
46223;BME280;31943;51.410;7.564;2023-07-31T06:30:34;99609.47;;;18.26;69.16
46223;BME280;31943;51.410;7.564;2023-07-31T06:32:59;99598.00;;;18.27;69.01
46223;BME280;31943;51.410;7.564;2023-07-31T06:35:27;99608.66;;;18.24;68.96
46223;BME280;31943;51.410;7.564;2023-07-31T06:37:53;99600.66;;;18.27;69.09
46223;BME280;31943;51.410;7.564;2023-07-31T06:40:19;99603.25;;;18.29;69.16
46223;BME280;31943;51.410;7.564;2023-07-31T06:42:45;99601.56;;;18.26;69.15
46223;BME280;31943;51.410;7.564;2023-07-31T06:45:10;99596.19;;;18.29;69.00
46223;BME280;31943;51.410;7.564;2023-07-31T06:47:36;99604.09;;;18.29;69.02
46223;BME280;31943;51.410;7.564;2023-07-31T06:50:02;99589.97;;;18.30;69.02
46223;BME280;31943;51.410;7.564;2023-07-31T06:52:31;99592.63;;;18.30;68.84
46223;BME280;31943;51.410;7.564;2023-07-31T06:55:04;99594.41;;;18.30;69.43
46223;BME280;31943;51.410;7.564;2023-07-31T06:57:41;99593.59;;;18.28;69.71
46223;BME280;31943;51.410;7.564;2023-07-31T07:00:08;99595.34;;;18.29;69.85
46223;BME280;31943;51.410;7.564;2023-07-31T07:02:33;99593.59;;;18.28;69.69
46223;BME280;31943;51.410;7.564;2023-07-31T07:04:59;99598.00;;;18.27;69.41
46223;BME280;31943;51.410;7.564;2023-07-31T07:07:25;99597.84;;;18.32;69.53
46223;BME280;31943;51.410;7.564;2023-07-31T07:09:54;99586.47;;;18.30;69.56
46223;BME280;31943;51.410;7.564;2023-07-31T07:12:19;99597.91;;;18.30;69.89
46223;BME280;31943;51.410;7.564;2023-07-31T07:14:45;99592.63;;;18.30;69.65
46223;BME280;31943;51.410;7.564;2023-07-31T07:17:11;99594.59;;;18.24;69.60
46223;BME280;31943;51.410;7.564;2023-07-31T07:19:40;99598.06;;;18.26;69.68
46223;BME280;31943;51.410;7.564;2023-07-31T07:22:06;99595.47;;;18.24;69.88
46223;BME280;31943;51.410;7.564;2023-07-31T07:24:31;99592.97;;;18.20;69.75
46223;BME280;31943;51.410;7.564;2023-07-31T07:26:59;99588.53;;;18.20;69.98
46223;BME280;31943;51.410;7.564;2023-07-31T07:29:26;99601.72;;;18.22;69.75
46223;BME280;31943;51.410;7.564;2023-07-31T07:31:51;99600.75;;;18.24;70.26
46223;BME280;31943;51.410;7.564;2023-07-31T07:34:17;99589.47;;;18.19;69.78
46223;BME280;31943;51.410;7.564;2023-07-31T07:36:44;99594.84;;;18.16;70.12
46223;BME280;31943;51.410;7.564;2023-07-31T07:39:10;99591.22;;;18.18;69.77
46223;BME280;31943;51.410;7.564;2023-07-31T07:41:36;99596.31;;;18.25;69.57
46223;BME280;31943;51.410;7.564;2023-07-31T07:44:03;99592.72;;;18.27;69.95
46223;BME280;31943;51.410;7.564;2023-07-31T07:46:29;99593.50;;;18.31;69.52
46223;BME280;31943;51.410;7.564;2023-07-31T07:48:54;99590.91;;;18.29;69.81
46223;BME280;31943;51.410;7.564;2023-07-31T07:51:21;99591.81;;;18.28;70.23
46223;BME280;31943;51.410;7.564;2023-07-31T07:53:47;99586.47;;;18.30;70.14
46223;BME280;31943;51.410;7.564;2023-07-31T07:56:13;99594.31;;;18.33;70.53
46223;BME280;31943;51.410;7.564;2023-07-31T07:58:39;99583.84;;;18.30;70.86
46223;BME280;31943;51.410;7.564;2023-07-31T08:01:07;99578.59;;;18.28;71.32
46223;BME280;31943;51.410;7.564;2023-07-31T08:03:33;99575.91;;;18.30;71.25
46223;BME280;31943;51.410;7.564;2023-07-31T08:05:59;99568.81;;;18.32;71.13
46223;BME280;31943;51.410;7.564;2023-07-31T08:08:28;99570.53;;;18.33;71.30
46223;BME280;31943;51.410;7.564;2023-07-31T08:10:54;99586.31;;;18.34;71.42
46223;BME280;31943;51.410;7.564;2023-07-31T08:13:20;99589.78;;;18.36;71.44
46223;BME280;31943;51.410;7.564;2023-07-31T08:15:46;99579.16;;;18.38;71.12
46223;BME280;31943;51.410;7.564;2023-07-31T08:18:13;99574.66;;;18.42;71.37
46223;BME280;31943;51.410;7.564;2023-07-31T08:20:39;99577.25;;;18.43;71.09
46223;BME280;31943;51.410;7.564;2023-07-31T08:23:05;99576.44;;;18.41;71.31
46223;BME280;31943;51.410;7.564;2023-07-31T08:25:30;99570.13;;;18.45;71.49
46223;BME280;31943;51.410;7.564;2023-07-31T08:27:59;99564.00;;;18.45;71.03
46223;BME280;31943;51.410;7.564;2023-07-31T08:30:25;99552.63;;;18.43;71.03
46223;BME280;31943;51.410;7.564;2023-07-31T08:32:52;99563.06;;;18.46;71.41
46223;BME280;31943;51.410;7.564;2023-07-31T08:35:19;99563.06;;;18.46;70.99
46223;BME280;31943;51.410;7.564;2023-07-31T08:37:46;99559.31;;;18.53;70.71
46223;BME280;31943;51.410;7.564;2023-07-31T08:40:11;99559.25;;;18.54;71.06
46223;BME280;31943;51.410;7.564;2023-07-31T08:42:43;99556.47;;;18.59;70.94
46223;BME280;31943;51.410;7.564;2023-07-31T08:45:12;99554.78;;;18.56;70.80
46223;BME280;31943;51.410;7.564;2023-07-31T08:47:40;99559.16;;;18.57;70.70
46223;BME280;31943;51.410;7.564;2023-07-31T08:50:07;99560.75;;;18.62;70.74
46223;BME280;31943;51.410;7.564;2023-07-31T08:52:35;99555.44;;;18.63;70.10
46223;BME280;31943;51.410;7.564;2023-07-31T08:55:01;99556.06;;;18.70;70.26
46223;BME280;31943;51.410;7.564;2023-07-31T08:57:27;99555.25;;;18.68;69.95
46223;BME280;31943;51.410;7.564;2023-07-31T08:59:54;99549.13;;;18.67;70.27
46223;BME280;31943;51.410;7.564;2023-07-31T09:02:21;99554.41;;;18.67;70.35
46223;BME280;31943;51.410;7.564;2023-07-31T09:04:48;99561.31;;;18.71;69.90
46223;BME280;31943;51.410;7.564;2023-07-31T09:07:14;99557.78;;;18.72;69.88
46223;BME280;31943;51.410;7.564;2023-07-31T09:09:42;99558.56;;;18.74;70.48
46223;BME280;31943;51.410;7.564;2023-07-31T09:12:08;99562.19;;;18.72;70.18
46223;BME280;31943;51.410;7.564;2023-07-31T09:14:34;99553.38;;;18.71;70.53
46223;BME280;31943;51.410;7.564;2023-07-31T09:17:03;99561.34;;;18.70;70.87
46223;BME280;31943;51.410;7.564;2023-07-31T09:19:32;99557.72;;;18.74;70.60
46223;BME280;31943;51.410;7.564;2023-07-31T09:21:58;99563.06;;;18.72;70.42
46223;BME280;31943;51.410;7.564;2023-07-31T09:24:27;99557.72;;;18.74;70.06
46223;BME280;31943;51.410;7.564;2023-07-31T09:26:56;99555.94;;;18.74;69.66
46223;BME280;31943;51.410;7.564;2023-07-31T09:29:22;99558.66;;;18.71;70.43
46223;BME280;31943;51.410;7.564;2023-07-31T09:31:48;99556.03;;;18.71;70.12
46223;BME280;31943;51.410;7.564;2023-07-31T09:34:14;99556.16;;;18.68;70.01
46223;BME280;31943;51.410;7.564;2023-07-31T09:36:41;99562.59;;;18.60;70.29
46223;BME280;31943;51.410;7.564;2023-07-31T09:39:09;99554.72;;;18.58;70.49
46223;BME280;31943;51.410;7.564;2023-07-31T09:41:36;99558.06;;;18.63;70.53
46223;BME280;31943;51.410;7.564;2023-07-31T09:44:05;99547.41;;;18.66;70.37
46223;BME280;31943;51.410;7.564;2023-07-31T09:46:30;99557.88;;;18.69;70.14
46223;BME280;31943;51.410;7.564;2023-07-31T09:49:04;99548.91;;;18.73;69.92
46223;BME280;31943;51.410;7.564;2023-07-31T09:51:30;99549.59;;;18.80;69.56
46223;BME280;31943;51.410;7.564;2023-07-31T09:53:56;99558.56;;;18.74;69.34
46223;BME280;31943;51.410;7.564;2023-07-31T09:56:23;99549.03;;;18.70;69.44
46223;BME280;31943;51.410;7.564;2023-07-31T09:58:50;99540.84;;;18.78;70.20
46223;BME280;31943;51.410;7.564;2023-07-31T10:01:18;99543.97;;;18.89;70.01
46223;BME280;31943;51.410;7.564;2023-07-31T10:03:45;99544.66;;;18.96;69.94
46223;BME280;31943;51.410;7.564;2023-07-31T10:06:11;99533.03;;;19.00;70.00
46223;BME280;31943;51.410;7.564;2023-07-31T10:08:39;99536.38;;;19.05;69.43
46223;BME280;31943;51.410;7.564;2023-07-31T10:11:06;99538.19;;;19.03;69.74
46223;BME280;31943;51.410;7.564;2023-07-31T10:13:35;99538.16;;;19.05;69.81
46223;BME280;31943;51.410;7.564;2023-07-31T10:16:02;99529.31;;;19.06;70.27
46223;BME280;31943;51.410;7.564;2023-07-31T10:18:31;99532.91;;;19.03;70.61
46223;BME280;31943;51.410;7.564;2023-07-31T10:20:57;99530.88;;;19.11;70.59
46223;BME280;31943;51.410;7.564;2023-07-31T10:23:23;99539.63;;;19.13;70.45
46223;BME280;31943;51.410;7.564;2023-07-31T10:25:49;99533.63;;;19.08;70.28
46223;BME280;31943;51.410;7.564;2023-07-31T10:28:16;99528.22;;;19.11;70.56
46223;BME280;31943;51.410;7.564;2023-07-31T10:30:43;99522.94;;;19.11;70.10
46223;BME280;31943;51.410;7.564;2023-07-31T10:33:10;99524.59;;;19.14;70.53
46223;BME280;31943;51.410;7.564;2023-07-31T10:35:37;99527.25;;;19.14;70.53
46223;BME280;31943;51.410;7.564;2023-07-31T10:38:10;99519.13;;;19.19;70.42
46223;BME280;31943;51.410;7.564;2023-07-31T10:40:36;99527.06;;;19.19;70.59
46223;BME280;31943;51.410;7.564;2023-07-31T10:43:03;99522.47;;;19.24;70.54
46223;BME280;31943;51.410;7.564;2023-07-31T10:45:31;99525.03;;;19.27;70.62
46223;BME280;31943;51.410;7.564;2023-07-31T10:48:01;99528.56;;;19.26;70.37
46223;BME280;31943;51.410;7.564;2023-07-31T10:50:28;99529.41;;;19.26;70.42
46223;BME280;31943;51.410;7.564;2023-07-31T10:52:56;99517.94;;;19.27;70.39
46223;BME280;31943;51.410;7.564;2023-07-31T10:55:24;99524.13;;;19.26;70.30
46223;BME280;31943;51.410;7.564;2023-07-31T10:57:51;99518.16;;;19.21;70.77
46223;BME280;31943;51.410;7.564;2023-07-31T11:00:19;99522.06;;;19.11;70.48
46223;BME280;31943;51.410;7.564;2023-07-31T11:02:56;99521.25;;;19.09;70.87
46223;BME280;31943;51.410;7.564;2023-07-31T11:05:40;99521.47;;;19.03;70.95
46223;BME280;31943;51.410;7.564;2023-07-31T11:08:12;99522.50;;;18.99;71.46
46223;BME280;31943;51.410;7.564;2023-07-31T11:10:39;99520.94;;;18.93;71.67
46223;BME280;31943;51.410;7.564;2023-07-31T11:13:06;99518.44;;;18.90;71.49
46223;BME280;31943;51.410;7.564;2023-07-31T11:15:32;99512.38;;;18.86;71.64
46223;BME280;31943;51.410;7.564;2023-07-31T11:17:57;99515.78;;;18.90;71.25
46223;BME280;31943;51.410;7.564;2023-07-31T11:20:23;99520.94;;;18.93;71.35
46223;BME280;31943;51.410;7.564;2023-07-31T11:22:49;99525.44;;;18.91;71.68
46223;BME280;31943;51.410;7.564;2023-07-31T11:25:17;99523.53;;;18.94;71.48
46223;BME280;31943;51.410;7.564;2023-07-31T11:27:44;99521.06;;;18.90;71.45
46223;BME280;31943;51.410;7.564;2023-07-31T11:30:11;99519.38;;;18.87;71.29
46223;BME280;31943;51.410;7.564;2023-07-31T11:32:37;99521.34;;;18.82;72.01
46223;BME280;31943;51.410;7.564;2023-07-31T11:35:03;99522.25;;;18.81;71.82
46223;BME280;31943;51.410;7.564;2023-07-31T11:37:39;99512.63;;;18.78;72.07
46223;BME280;31943;51.410;7.564;2023-07-31T11:40:06;99517.00;;;18.80;71.76
46223;BME280;31943;51.410;7.564;2023-07-31T11:42:36;99508.06;;;18.84;71.93
46223;BME280;31943;51.410;7.564;2023-07-31T11:45:02;99501.06;;;18.83;71.82
46223;BME280;31943;51.410;7.564;2023-07-31T11:47:28;99501.63;;;18.91;71.47
46223;BME280;31943;51.410;7.564;2023-07-31T11:49:55;99503.25;;;18.95;71.76
46223;BME280;31943;51.410;7.564;2023-07-31T11:52:22;99496.91;;;18.99;71.13
46223;BME280;31943;51.410;7.564;2023-07-31T11:54:48;99499.41;;;19.04;71.27
46223;BME280;31943;51.410;7.564;2023-07-31T11:57:14;99501.06;;;19.06;71.18
46223;BME280;31943;51.410;7.564;2023-07-31T11:59:44;99501.13;;;19.05;70.83
46223;BME280;31943;51.410;7.564;2023-07-31T12:02:10;99500.03;;;19.10;70.25
46223;BME280;31943;51.410;7.564;2023-07-31T12:04:37;99492.97;;;19.11;70.86
46223;BME280;31943;51.410;7.564;2023-07-31T12:07:03;99487.66;;;19.11;70.81
46223;BME280;31943;51.410;7.564;2023-07-31T12:09:31;99488.66;;;19.08;70.50
46223;BME280;31943;51.410;7.564;2023-07-31T12:11:56;99490.59;;;19.03;70.67
46223;BME280;31943;51.410;7.564;2023-07-31T12:14:24;99482.00;;;18.98;71.15
46223;BME280;31943;51.410;7.564;2023-07-31T12:16:56;99506.53;;;19.02;71.04
46223;BME280;31943;51.410;7.564;2023-07-31T12:19:22;99494.19;;;19.02;70.82
46223;BME280;31943;51.410;7.564;2023-07-31T12:21:49;99492.28;;;19.06;70.88
46223;BME280;31943;51.410;7.564;2023-07-31T12:24:18;99493.72;;;19.14;70.56
46223;BME280;31943;51.410;7.564;2023-07-31T12:26:45;99490.91;;;19.19;70.69
46223;BME280;31943;51.410;7.564;2023-07-31T12:29:11;99496.78;;;19.27;70.83
46223;BME280;31943;51.410;7.564;2023-07-31T12:31:41;99492.25;;;19.31;70.62
46223;BME280;31943;51.410;7.564;2023-07-31T12:34:16;99490.41;;;19.33;70.53
46223;BME280;31943;51.410;7.564;2023-07-31T12:36:42;99490.91;;;19.43;70.48
46223;BME280;31943;51.410;7.564;2023-07-31T12:39:09;99488.56;;;19.57;69.96
46223;BME280;31943;51.410;7.564;2023-07-31T12:41:34;99481.13;;;19.67;69.63
46223;BME280;31943;51.410;7.564;2023-07-31T12:44:00;99475.69;;;19.71;70.05
46223;BME280;31943;51.410;7.564;2023-07-31T12:46:27;99472.88;;;19.76;69.26
46223;BME280;31943;51.410;7.564;2023-07-31T12:48:53;99474.63;;;19.75;69.16
46223;BME280;31943;51.410;7.564;2023-07-31T12:51:21;99473.94;;;19.70;69.32
46223;BME280;31943;51.410;7.564;2023-07-31T12:53:47;99471.47;;;19.66;69.36
46223;BME280;31943;51.410;7.564;2023-07-31T12:56:13;99463.66;;;19.63;69.58
46223;BME280;31943;51.410;7.564;2023-07-31T12:58:40;99462.66;;;19.65;69.89